createdAt,value
2023-02-28T00:01:15.280Z,5.63
2023-02-28T00:03:42.359Z,6.22
2023-02-28T00:06:09.747Z,5.63
2023-02-28T00:08:37.363Z,5.75
2023-02-28T00:11:06.048Z,5.45
2023-02-28T00:13:35.339Z,5.60
2023-02-28T00:16:19.457Z,6.40
2023-02-28T00:18:46.880Z,4.97
2023-02-28T00:21:15.792Z,6.00
2023-02-28T00:23:49.150Z,5.35
2023-02-28T00:26:16.343Z,5.93
2023-02-28T00:28:43.156Z,5.70
2023-02-28T00:31:10.413Z,5.50
2023-02-28T00:33:37.267Z,5.70
2023-02-28T00:36:10.046Z,5.57
2023-02-28T00:38:37.623Z,5.40
2023-02-28T00:41:13.705Z,6.05
2023-02-28T00:43:41.274Z,5.72
2023-02-28T00:46:08.550Z,5.80
2023-02-28T00:48:35.529Z,5.20
2023-02-28T00:51:02.841Z,5.50
2023-02-28T00:53:30.385Z,5.63
2023-02-28T00:55:57.132Z,5.38
2023-02-28T00:58:23.981Z,5.63
2023-02-28T01:00:52.277Z,5.63
2023-02-28T01:03:19.946Z,6.57
2023-02-28T01:05:47.442Z,6.28
2023-02-28T01:08:15.016Z,6.10
2023-02-28T01:10:41.930Z,6.90
2023-02-28T01:13:08.921Z,5.95
2023-02-28T01:15:47.444Z,6.50
2023-02-28T01:18:17.032Z,6.43
2023-02-28T01:20:44.235Z,6.20
2023-02-28T01:23:11.127Z,7.20
2023-02-28T01:25:38.533Z,6.50
2023-02-28T01:28:05.628Z,6.90
2023-02-28T01:30:32.979Z,6.60
2023-02-28T01:33:02.516Z,6.13
2023-02-28T01:35:29.374Z,6.47
2023-02-28T01:37:58.990Z,6.35
2023-02-28T01:40:28.028Z,6.22
2023-02-28T01:42:54.774Z,6.70
2023-02-28T01:45:27.294Z,6.80
2023-02-28T01:47:59.443Z,6.35
2023-02-28T01:50:32.082Z,7.43
2023-02-28T01:53:03.183Z,6.63
2023-02-28T01:55:30.270Z,6.80
2023-02-28T01:58:01.206Z,6.95
2023-02-28T02:00:29.430Z,6.95
2023-02-28T02:03:00.401Z,6.95
2023-02-28T02:05:30.333Z,7.43
2023-02-28T02:07:59.070Z,7.15
2023-02-28T02:10:42.556Z,7.00
2023-02-28T02:13:45.657Z,7.07
2023-02-28T02:16:34.357Z,7.22
2023-02-28T02:19:38.157Z,7.07
2023-02-28T02:22:13.954Z,7.22
2023-02-28T02:24:50.025Z,7.00
2023-02-28T02:27:23.615Z,7.38
2023-02-28T02:30:24.196Z,7.22
2023-02-28T02:33:29.446Z,7.90
2023-02-28T02:36:20.668Z,7.50
2023-02-28T02:38:53.110Z,7.45
2023-02-28T02:41:35.417Z,7.82
2023-02-28T02:44:32.349Z,7.70
2023-02-28T02:47:11.209Z,8.07
2023-02-28T02:49:40.871Z,8.27
2023-02-28T02:52:12.837Z,8.38
2023-02-28T02:54:44.378Z,7.95
2023-02-28T02:57:15.439Z,8.50
2023-02-28T02:59:43.451Z,8.05
2023-02-28T03:02:15.048Z,8.70
2023-02-28T03:04:47.316Z,8.02
2023-02-28T03:07:14.051Z,8.73
2023-02-28T03:09:40.894Z,8.63
2023-02-28T03:12:12.959Z,8.15
2023-02-28T03:15:25.840Z,8.85
2023-02-28T03:18:15.211Z,9.02
2023-02-28T03:21:00.469Z,8.48
2023-02-28T03:23:43.339Z,9.20
2023-02-28T03:26:27.896Z,8.50
2023-02-28T03:29:06.058Z,9.13
2023-02-28T03:31:44.505Z,8.90
2023-02-28T03:34:32.506Z,8.75
2023-02-28T03:37:06.834Z,8.68
2023-02-28T03:40:05.159Z,8.85
2023-02-28T03:42:34.921Z,9.00
2023-02-28T03:45:06.419Z,8.63
2023-02-28T03:47:55.587Z,9.20
2023-02-28T03:50:33.945Z,8.43
2023-02-28T03:53:12.106Z,8.82
2023-02-28T03:55:53.496Z,9.13
2023-02-28T03:58:28.471Z,9.40
2023-02-28T04:01:16.329Z,9.38
2023-02-28T04:03:43.290Z,8.70
2023-02-28T04:06:18.440Z,9.15
2023-02-28T04:08:45.613Z,8.75
2023-02-28T04:11:21.256Z,8.90
2023-02-28T04:16:28.314Z,9.13
2023-02-28T04:19:00.655Z,9.85
2023-02-28T04:21:28.105Z,10.52
2023-02-28T04:23:55.509Z,11.57
2023-02-28T04:26:22.296Z,9.50
2023-02-28T04:28:49.049Z,10.00
2023-02-28T04:31:15.853Z,11.18
2023-02-28T04:33:42.712Z,9.63
2023-02-28T04:36:09.893Z,10.98
2023-02-28T04:38:38.657Z,9.70
2023-02-28T04:41:06.271Z,9.93
2023-02-28T04:43:33.586Z,9.18
2023-02-28T04:46:03.702Z,10.05
2023-02-28T04:48:32.596Z,10.13
2023-02-28T04:51:07.818Z,10.30
2023-02-28T04:53:35.747Z,10.40
2023-02-28T04:56:03.038Z,10.10
2023-02-28T04:58:29.809Z,10.43
2023-02-28T05:01:03.788Z,10.40
2023-02-28T05:03:30.575Z,10.70
2023-02-28T05:05:57.277Z,10.90
2023-02-28T05:08:24.152Z,11.38
2023-02-28T05:10:50.903Z,11.80
2023-02-28T05:13:18.094Z,12.70
2023-02-28T05:15:44.881Z,12.60
2023-02-28T05:18:11.722Z,13.55
2023-02-28T05:20:38.501Z,12.60
2023-02-28T05:23:05.315Z,12.50
2023-02-28T05:25:32.041Z,13.40
2023-02-28T05:27:58.784Z,13.07
2023-02-28T05:30:25.742Z,13.48
2023-02-28T05:32:52.727Z,11.82
2023-02-28T05:35:19.583Z,12.05
2023-02-28T05:37:46.385Z,12.65
2023-02-28T05:40:13.479Z,11.60
2023-02-28T05:42:40.403Z,11.45
2023-02-28T05:45:08.211Z,11.27
2023-02-28T05:47:35.321Z,11.35
2023-02-28T05:50:02.393Z,10.57
2023-02-28T05:52:29.868Z,11.10
2023-02-28T05:54:57.127Z,11.35
2023-02-28T05:57:25.011Z,11.43
2023-02-28T05:59:52.246Z,11.00
2023-02-28T06:02:19.170Z,12.55
2023-02-28T06:04:46.483Z,12.23
2023-02-28T06:07:13.492Z,13.30
2023-02-28T06:09:40.476Z,13.32
2023-02-28T06:12:08.389Z,12.48
2023-02-28T06:14:35.845Z,12.50
2023-02-28T06:17:03.458Z,11.73
2023-02-28T06:19:30.436Z,12.10
2023-02-28T06:21:57.873Z,11.98
2023-02-28T06:24:26.644Z,12.13
2023-02-28T06:26:53.437Z,11.57
2023-02-28T06:29:20.244Z,11.70
2023-02-28T06:31:47.804Z,15.57
2023-02-28T06:34:15.190Z,13.45
2023-02-28T06:36:43.272Z,11.20
2023-02-28T06:39:10.425Z,11.63
2023-02-28T06:45:42.693Z,10.82
2023-02-28T06:48:09.400Z,10.80
2023-02-28T06:50:36.239Z,11.07
2023-02-28T06:53:06.189Z,11.30
2023-02-28T06:55:33.196Z,12.25
2023-02-28T06:58:00.201Z,12.13
2023-02-28T07:00:27.081Z,12.45
2023-02-28T07:02:53.978Z,13.98
2023-02-28T07:05:20.734Z,12.55
2023-02-28T07:07:47.493Z,12.38
2023-02-28T07:10:14.286Z,14.25
2023-02-28T07:12:41.158Z,15.95
2023-02-28T07:15:08.562Z,14.10
2023-02-28T07:17:35.592Z,14.85
2023-02-28T07:20:02.710Z,16.75
2023-02-28T07:22:29.459Z,15.65
2023-02-28T07:24:56.218Z,15.25
2023-02-28T07:27:23.109Z,14.38
2023-02-28T07:29:50.313Z,13.73
2023-02-28T07:32:17.413Z,14.05
2023-02-28T07:34:44.304Z,12.85
2023-02-28T07:37:11.147Z,11.48
2023-02-28T07:39:38.002Z,10.90
2023-02-28T07:42:07.909Z,12.13
2023-02-28T07:44:34.672Z,11.82
2023-02-28T07:47:01.558Z,11.40
2023-02-28T07:49:28.307Z,11.02
2023-02-28T07:51:55.016Z,11.60
2023-02-28T07:54:21.889Z,12.52
2023-02-28T07:56:48.656Z,11.82
2023-02-28T07:59:15.366Z,11.52
2023-02-28T08:01:42.241Z,11.15
2023-02-28T08:04:09.056Z,10.05
2023-02-28T08:06:35.818Z,10.35
2023-02-28T08:09:02.658Z,10.13
2023-02-28T08:11:29.692Z,10.32
2023-02-28T08:13:56.692Z,8.98
2023-02-28T08:16:26.095Z,8.48
2023-02-28T08:18:54.029Z,5.80
2023-02-28T08:21:22.087Z,6.10
2023-02-28T08:23:49.955Z,5.90
2023-02-28T08:26:18.541Z,6.00
2023-02-28T08:28:45.578Z,5.30
2023-02-28T08:31:14.733Z,5.55
2023-02-28T08:33:42.611Z,5.03
2023-02-28T08:36:10.412Z,4.53
2023-02-28T08:38:38.281Z,5.20
2023-02-28T08:41:08.252Z,4.93
2023-02-28T08:43:36.124Z,5.32
2023-02-28T08:46:03.755Z,4.40
2023-02-28T08:48:32.405Z,4.03
2023-02-28T08:51:09.026Z,4.28
2023-02-28T08:53:40.113Z,4.20
2023-02-28T08:56:15.400Z,3.42
2023-02-28T08:58:42.157Z,3.35
2023-02-28T09:01:13.908Z,3.63
2023-02-28T09:03:40.934Z,3.42
2023-02-28T09:06:08.251Z,3.17
2023-02-28T09:08:35.555Z,3.08
2023-02-28T09:11:06.068Z,3.55
2023-02-28T09:13:33.708Z,4.20
2023-02-28T09:16:02.984Z,4.20
2023-02-28T09:18:32.463Z,3.53
2023-02-28T09:20:59.327Z,3.70
2023-02-28T09:23:26.341Z,3.67
2023-02-28T09:25:55.370Z,2.95
2023-02-28T09:28:23.407Z,3.55
2023-02-28T09:30:53.031Z,3.50
2023-02-28T09:33:21.271Z,4.38
2023-02-28T09:35:49.219Z,3.90
2023-02-28T09:38:15.991Z,4.25
2023-02-28T09:40:52.770Z,3.53
2023-02-28T09:43:23.127Z,3.78
2023-02-28T09:46:01.371Z,3.60
2023-02-28T09:48:34.733Z,4.40
2023-02-28T09:51:12.408Z,3.78
2023-02-28T09:53:39.533Z,3.33
2023-02-28T09:56:29.675Z,2.88
2023-02-28T09:59:01.539Z,3.30
2023-02-28T10:01:43.143Z,3.08
2023-02-28T10:04:37.966Z,2.95
2023-02-28T10:07:19.872Z,3.30
2023-02-28T10:09:51.975Z,3.80
2023-02-28T10:12:20.002Z,2.95
2023-02-28T10:14:50.218Z,3.42
2023-02-28T10:17:27.529Z,3.42
2023-02-28T10:20:05.599Z,3.90
2023-02-28T10:22:54.363Z,3.28
2023-02-28T10:25:29.807Z,3.72
2023-02-28T10:28:06.644Z,3.85
2023-02-28T10:30:33.630Z,3.70
2023-02-28T10:33:00.608Z,3.30
2023-02-28T10:35:27.852Z,4.00
2023-02-28T10:37:58.254Z,3.72
2023-02-28T10:40:25.222Z,3.55
2023-02-28T10:43:05.358Z,3.92
2023-02-28T10:45:36.759Z,3.47
2023-02-28T10:48:15.755Z,3.72
2023-02-28T10:50:51.836Z,3.00
2023-02-28T10:53:24.720Z,3.42
2023-02-28T10:56:00.414Z,3.42
2023-02-28T10:58:41.151Z,3.28
2023-02-28T11:01:18.325Z,3.70
2023-02-28T11:03:45.579Z,3.63
2023-02-28T11:06:19.982Z,3.60
2023-02-28T11:08:54.782Z,3.85
2023-02-28T11:11:23.134Z,3.60
2023-02-28T11:13:57.661Z,4.50
2023-02-28T11:16:37.882Z,3.67
2023-02-28T11:19:16.988Z,3.72
2023-02-28T11:21:53.369Z,3.95
2023-02-28T11:24:34.327Z,3.92
2023-02-28T11:27:01.070Z,3.40
2023-02-28T11:29:33.647Z,4.32
2023-02-28T11:32:32.965Z,4.07
2023-02-28T11:35:20.427Z,4.32
2023-02-28T11:37:47.250Z,4.30
2023-02-28T11:40:22.445Z,4.07
2023-02-28T11:43:19.257Z,3.90
2023-02-28T11:45:52.127Z,4.63
2023-02-28T11:49:15.593Z,4.80
2023-02-28T11:51:49.519Z,5.32
2023-02-28T11:54:48.652Z,4.93
2023-02-28T11:57:35.934Z,4.60
2023-02-28T12:00:36.414Z,4.25
2023-02-28T12:03:23.705Z,4.50
2023-02-28T12:06:21.501Z,5.22
2023-02-28T12:09:18.319Z,4.57
2023-02-28T12:11:59.562Z,4.57
2023-02-28T12:14:31.729Z,5.20
2023-02-28T12:17:12.923Z,4.18
2023-02-28T12:19:48.210Z,4.85
2023-02-28T12:22:38.653Z,5.07
2023-02-28T12:25:08.437Z,4.47
2023-02-28T12:27:41.286Z,3.75
2023-02-28T12:30:22.760Z,3.92
2023-02-28T12:32:57.379Z,3.97
2023-02-28T12:35:52.534Z,3.97
2023-02-28T12:38:30.324Z,3.92
2023-02-28T12:41:20.362Z,4.40
2023-02-28T12:43:59.073Z,3.95
2023-02-28T12:46:40.757Z,4.05
2023-02-28T12:49:16.502Z,5.78
2023-02-28T12:54:47.515Z,4.05
2023-02-28T12:57:37.929Z,4.95
2023-02-28T13:00:14.285Z,3.78
2023-02-28T13:03:02.000Z,4.40
2023-02-28T13:05:59.312Z,4.10
2023-02-28T13:08:52.160Z,3.88
2023-02-28T13:11:42.638Z,4.25
2023-02-28T13:14:37.299Z,3.70
2023-02-28T13:17:13.945Z,3.70
2023-02-28T13:19:55.829Z,3.60
2023-02-28T13:22:42.672Z,3.72
2023-02-28T13:25:42.507Z,3.55
2023-02-28T13:28:14.355Z,5.53
2023-02-28T13:30:53.427Z,3.90
2023-02-28T13:33:30.157Z,4.43
2023-02-28T13:36:15.445Z,4.03
2023-02-28T13:38:47.215Z,4.37
2023-02-28T13:41:32.413Z,6.45
2023-02-28T13:44:04.180Z,5.03
2023-02-28T13:46:32.659Z,3.67
2023-02-28T13:49:24.022Z,3.60
2023-02-28T13:52:06.838Z,4.13
2023-02-28T13:54:57.291Z,4.20
2023-02-28T13:57:38.771Z,4.30
2023-02-28T14:00:36.375Z,3.70
2023-02-28T14:03:16.095Z,4.00
2023-02-28T14:05:43.873Z,4.35
2023-02-28T14:08:22.567Z,4.20
2023-02-28T14:11:02.703Z,4.20
2023-02-28T14:13:46.327Z,4.05
2023-02-28T14:16:18.011Z,4.13
2023-02-28T14:18:52.356Z,4.25
2023-02-28T14:21:57.401Z,4.05
2023-02-28T14:24:50.329Z,4.25
2023-02-28T14:27:32.418Z,6.03
2023-02-28T14:30:24.311Z,4.15
2023-02-28T14:33:18.782Z,4.78
2023-02-28T14:36:13.582Z,4.65
2023-02-28T14:38:43.319Z,5.05
2023-02-28T14:41:24.712Z,5.22
2023-02-28T14:44:00.362Z,5.78
2023-02-28T14:46:37.301Z,4.00
2023-02-28T14:49:06.413Z,4.07
2023-02-28T14:51:33.210Z,4.75
2023-02-28T14:54:02.989Z,4.22
2023-02-28T14:56:39.660Z,5.05
2023-02-28T14:59:22.274Z,4.53
2023-02-28T15:01:49.104Z,4.70
2023-02-28T15:04:27.534Z,4.95
2023-02-28T15:07:11.887Z,4.82
2023-02-28T15:09:38.749Z,5.45
2023-02-28T15:12:05.813Z,5.90
2023-02-28T15:14:33.066Z,4.90
2023-02-28T15:17:09.330Z,4.88
2023-02-28T15:19:42.604Z,4.80
2023-02-28T15:22:18.043Z,5.80
2023-02-28T15:24:47.904Z,6.18
2023-02-28T15:27:25.568Z,5.00
2023-02-28T15:29:57.775Z,4.10
2023-02-28T15:32:31.935Z,4.88
2023-02-28T15:35:17.502Z,4.95
2023-02-28T15:37:56.824Z,5.15
2023-02-28T15:40:36.468Z,6.13
2023-02-28T15:43:07.678Z,5.43
2023-02-28T15:45:46.106Z,4.68
2023-02-28T15:48:33.131Z,5.18
2023-02-28T15:51:12.169Z,4.82
2023-02-28T15:54:04.467Z,6.85
2023-02-28T15:56:51.461Z,6.03
2023-02-28T15:59:30.035Z,5.65
2023-02-28T16:02:32.319Z,5.68
2023-02-28T16:05:30.182Z,5.32
2023-02-28T16:08:02.349Z,5.93
2023-02-28T16:10:30.308Z,4.90
2023-02-28T16:12:58.381Z,5.75
2023-02-28T16:15:31.960Z,5.55
2023-02-28T16:17:59.308Z,5.07
2023-02-28T16:20:31.560Z,5.35
2023-02-28T16:22:58.801Z,5.50
2023-02-28T16:25:36.060Z,5.03
2023-02-28T16:28:13.533Z,5.15
2023-02-28T16:30:40.324Z,5.72
2023-02-28T16:33:09.428Z,5.82
2023-02-28T16:35:37.519Z,6.15
2023-02-28T16:38:04.336Z,5.70
2023-02-28T16:40:35.259Z,5.40
2023-02-28T16:43:07.811Z,5.78
2023-02-28T16:45:35.059Z,6.25
2023-02-28T16:48:02.258Z,5.90
2023-02-28T16:50:31.489Z,6.10
2023-02-28T16:52:58.303Z,6.50
2023-02-28T16:55:27.136Z,6.65
2023-02-28T16:57:57.077Z,6.28
2023-02-28T17:00:25.520Z,7.10
2023-02-28T17:02:52.690Z,6.70
2023-02-28T17:05:19.541Z,7.40
2023-02-28T17:07:47.117Z,7.70
2023-02-28T17:10:25.694Z,7.40
2023-02-28T17:12:54.992Z,6.95
2023-02-28T17:15:23.410Z,7.20
2023-02-28T17:17:51.091Z,7.57
2023-02-28T17:20:20.621Z,7.95
2023-02-28T17:22:47.415Z,10.27
2023-02-28T17:25:14.173Z,8.77
2023-02-28T17:27:40.984Z,8.60
2023-02-28T17:30:28.882Z,8.90
2023-02-28T17:32:56.735Z,7.97
2023-02-28T17:35:24.047Z,8.85
2023-02-28T17:37:51.358Z,8.15
2023-02-28T17:40:21.415Z,8.73
2023-02-28T17:42:48.436Z,7.95
2023-02-28T17:45:16.533Z,8.80
2023-02-28T17:47:46.532Z,8.20
2023-02-28T17:50:20.474Z,8.85
2023-02-28T17:52:47.483Z,9.75
2023-02-28T17:55:14.668Z,9.30
2023-02-28T17:57:41.656Z,10.30
2023-02-28T18:00:09.431Z,8.77
2023-02-28T18:02:36.189Z,10.57
2023-02-28T18:05:02.992Z,9.73
2023-02-28T18:07:30.003Z,9.35
2023-02-28T18:09:56.684Z,9.88
2023-02-28T18:12:24.557Z,10.38
2023-02-28T18:14:53.333Z,10.52
2023-02-28T18:17:20.106Z,10.77
2023-02-28T18:19:46.914Z,10.10
2023-02-28T18:22:13.764Z,11.07
2023-02-28T18:24:40.486Z,10.20
2023-02-28T18:27:07.277Z,11.02
2023-02-28T18:29:34.074Z,10.27
2023-02-28T18:32:00.838Z,11.70
2023-02-28T18:34:27.637Z,12.20
2023-02-28T18:36:54.352Z,11.48
2023-02-28T18:39:21.187Z,12.80
2023-02-28T18:41:47.989Z,13.10
2023-02-28T18:44:22.481Z,12.65
2023-02-28T18:46:50.239Z,12.10
2023-02-28T18:49:17.673Z,12.43
2023-02-28T18:51:44.512Z,12.15
2023-02-28T18:54:12.072Z,14.05
2023-02-28T18:56:39.124Z,16.05
2023-02-28T18:59:05.896Z,15.48
2023-02-28T19:01:33.056Z,15.60
2023-02-28T19:04:01.302Z,16.10
2023-02-28T19:06:28.621Z,16.00
2023-02-28T19:08:57.806Z,16.10
2023-02-28T19:11:25.563Z,14.73
2023-02-28T19:13:52.514Z,14.80
2023-02-28T19:16:21.000Z,15.40
2023-02-28T19:18:48.083Z,14.70
2023-02-28T19:21:17.252Z,14.02
2023-02-28T19:23:44.847Z,16.88
2023-02-28T19:26:14.175Z,13.25
2023-02-28T19:28:41.266Z,12.88
2023-02-28T19:31:15.656Z,17.73
2023-02-28T19:33:43.192Z,16.88
2023-02-28T19:36:11.099Z,17.15
2023-02-28T19:38:38.416Z,13.98
2023-02-28T19:41:08.433Z,14.48
2023-02-28T19:43:35.589Z,16.08
2023-02-28T19:46:02.479Z,14.98
2023-02-28T19:48:29.468Z,14.80
2023-02-28T19:51:00.623Z,13.90
2023-02-28T19:53:29.798Z,13.60
2023-02-28T19:55:56.564Z,13.73
2023-02-28T19:58:23.638Z,14.20
2023-02-28T20:00:50.632Z,15.55
2023-02-28T20:03:17.576Z,15.77
2023-02-28T20:05:45.197Z,16.90
2023-02-28T20:08:12.165Z,19.95
2023-02-28T20:10:39.363Z,18.35
2023-02-28T20:13:06.247Z,15.45
2023-02-28T20:15:33.129Z,18.65
2023-02-28T20:18:00.617Z,18.40
2023-02-28T20:20:27.882Z,16.23
2023-02-28T20:22:55.193Z,19.73
2023-02-28T20:25:22.203Z,17.15
2023-02-28T20:27:50.621Z,16.20
2023-02-28T20:30:17.652Z,16.73
2023-02-28T20:32:44.368Z,15.15
2023-02-28T20:35:11.308Z,13.55
2023-02-28T20:37:38.745Z,14.50
2023-02-28T20:40:07.231Z,15.63
2023-02-28T20:42:34.295Z,15.38
2023-02-28T20:45:01.076Z,16.40
2023-02-28T20:47:27.767Z,16.25
2023-02-28T20:49:54.629Z,16.65
2023-02-28T20:52:21.857Z,16.92
2023-02-28T20:54:48.960Z,15.40
2023-02-28T20:57:15.804Z,16.25
2023-02-28T20:59:42.947Z,17.10
2023-02-28T21:02:20.684Z,15.45
2023-02-28T21:04:47.607Z,13.43
2023-02-28T21:07:14.478Z,15.02
2023-02-28T21:09:41.366Z,15.60
2023-02-28T21:12:08.427Z,14.68
2023-02-28T21:14:36.283Z,14.93
2023-02-28T21:17:03.068Z,15.20
2023-02-28T21:19:30.030Z,15.10
2023-02-28T21:21:56.758Z,17.58
2023-02-28T21:24:25.956Z,17.42
2023-02-28T21:26:53.154Z,17.40
2023-02-28T21:29:19.835Z,18.55
2023-02-28T21:31:49.831Z,18.38
2023-02-28T21:34:16.541Z,18.58
2023-02-28T21:36:44.417Z,17.23
2023-02-28T21:39:23.245Z,19.35
2023-02-28T21:41:50.021Z,21.70
2023-02-28T21:44:16.769Z,22.52
2023-02-28T21:46:51.472Z,21.65
2023-02-28T21:49:18.296Z,22.10
2023-02-28T21:51:45.163Z,23.05
2023-02-28T21:54:12.324Z,22.27
2023-02-28T21:56:39.323Z,20.63
2023-02-28T21:59:06.568Z,19.92
2023-02-28T22:01:36.018Z,21.38
2023-02-28T22:04:05.407Z,26.90
2023-02-28T22:06:35.191Z,21.52
2023-02-28T22:09:04.267Z,22.67
2023-02-28T22:11:30.984Z,22.30
2023-02-28T22:13:58.485Z,19.63
2023-02-28T22:16:29.505Z,18.60
2023-02-28T22:18:58.367Z,25.70
2023-02-28T22:21:25.615Z,19.27
2023-02-28T22:23:52.449Z,20.38
2023-02-28T22:26:21.858Z,19.13
2023-02-28T22:28:50.037Z,19.15
2023-02-28T22:31:23.554Z,18.90
2023-02-28T22:33:52.774Z,18.45
2023-02-28T22:36:20.947Z,19.27
2023-02-28T22:38:51.202Z,17.65
2023-02-28T22:41:20.054Z,16.55
2023-02-28T22:43:58.120Z,17.95
2023-02-28T22:46:26.935Z,17.10
2023-02-28T22:48:53.921Z,17.73
2023-02-28T22:51:23.293Z,17.55
2023-02-28T22:53:52.229Z,17.92
2023-02-28T22:56:21.474Z,17.27
2023-02-28T22:58:53.648Z,17.73
2023-02-28T23:01:22.462Z,16.08
2023-02-28T23:03:49.975Z,17.20
2023-02-28T23:06:22.235Z,17.60
2023-02-28T23:08:50.082Z,17.42
2023-02-28T23:11:23.310Z,18.55
2023-02-28T23:13:50.765Z,15.07
2023-02-28T23:16:17.844Z,14.98
2023-02-28T23:18:44.562Z,15.68
2023-02-28T23:21:11.355Z,15.00
2023-02-28T23:23:38.087Z,14.35
2023-02-28T23:26:08.121Z,15.13
2023-02-28T23:28:34.847Z,14.73
2023-02-28T23:31:01.997Z,16.98
2023-02-28T23:33:28.877Z,18.33
2023-02-28T23:35:55.657Z,14.40
2023-02-28T23:38:22.529Z,14.38
2023-02-28T23:40:49.308Z,15.55
2023-02-28T23:43:16.204Z,16.25
2023-02-28T23:45:42.986Z,17.23
2023-02-28T23:48:09.792Z,16.88
2023-02-28T23:50:37.798Z,16.73
2023-02-28T23:53:04.537Z,20.65
2023-02-28T23:55:31.740Z,17.05
2023-02-28T23:57:58.489Z,17.42
